Jennifer — WDF6480 — position and weather

sailwx.info

Track history (hours):
 
Tides and Currents Weather Stations Pressure Air Temp Water Temp Dewpoint Dewpoint Depression Visibility Wind Speed Wind Dir Waves Ship Positions

Jennifer

Owner: John W. Stone Oil Distributor, L.L.C., Gretna, LA. More information available from US FCC via Universal Licensing System and Coast Guard Vessel Documentation Center.

Last reported at 2015-Aug-03 18:17 UTC. Time now 2015-Aug-03 19:08 UTC.
Position N 29°56' W 090°04'.

Length 17 m; draft 3 m.

Type: Tug. MMSI: 367474690.

Date/timePositionNaut miles runAvg speedWind from/ knotsBaromVisibWave heightAir tempDewpointWater temp
2015-Aug-03 18:17N 29°56' W 090°04'0 0.0
2015-Aug-03 17:33N 29°56' W 090°04'0 0.0
2015-Aug-03 16:21N 29°56' W 090°04'1 1.1
2015-Aug-03 15:27N 29°57' W 090°03'7 0.5
2015-Aug-03 02:17N 29°55' W 089°56'7 8.6
2015-Aug-03 01:30N 29°56' W 090°04'3 0.3
2015-Aug-02 13:33N 29°58' W 090°01'3 0.1
2015-Jul-31 21:14N 29°56' W 090°03'0 0.1
2015-Jul-31 16:17N 29°56' W 090°04'5 0.3
2015-Jul-30 21:24N 29°55' W 089°58'5 5.7
2015-Jul-30 20:33N 29°56' W 090°04'0 0.2
2015-Jul-30 19:32N 29°55' W 090°04'0 0.0
2015-Jul-30 18:34N 29°55' W 090°04'0 0.1
2015-Jul-30 17:33N 29°55' W 090°04'  
2015-Jul-28 01:26N 29°51' W 090°04'4 3.2
2015-Jul-28 00:07N 29°55' W 090°05'0 0.3
2015-Jul-27 23:20N 29°55' W 090°05'2 1.7
2015-Jul-27 22:26N 29°56' W 090°04'0 0.3
2015-Jul-27 21:32N 29°55' W 090°04'0 0.0
2015-Jul-27 20:32N 29°55' W 090°04'0 0.1
2015-Jul-27 19:32N 29°55' W 090°04'2 1.6
2015-Jul-27 18:30N 29°54' W 090°05'5 4.5
2015-Jul-27 17:28N 29°50' W 090°04'26 3.7
2015-Jul-27 10:22N 29°33' W 090°28'6 7.2
2015-Jul-27 09:33N 29°34' W 090°35'6 6.1
2015-Jul-27 08:33N 29°37' W 090°41'4 4.1
2015-Jul-27 07:33N 29°34' W 090°45'6 5.6
2015-Jul-27 06:33N 29°32' W 090°51'  
Track history (hours):
 
Tides and Currents Weather Stations Pressure Air Temp Water Temp Dewpoint Dewpoint Depression Visibility Wind Speed Wind Dir Waves Ship Positions

Jennifer

Owner: John W. Stone Oil Distributor, L.L.C., Gretna, LA. More information available from US FCC via Universal Licensing System and Coast Guard Vessel Documentation Center.

Last reported at 2015-Aug-03 18:17 UTC. Time now 2015-Aug-03 19:08 UTC.
Position N 29°56' W 090°04'.

Length 17 m; draft 3 m.

Type: Tug. MMSI: 367474690.

Date/timePositionNaut miles runAvg speedWind from/ knotsBaromVisibWave heightAir tempDewpointWater temp
2015-Aug-03 18:17N 29°56' W 090°04'0 0.0
2015-Aug-03 17:33N 29°56' W 090°04'0 0.0
2015-Aug-03 16:21N 29°56' W 090°04'1 1.1
2015-Aug-03 15:27N 29°57' W 090°03'7 0.5
2015-Aug-03 02:17N 29°55' W 089°56'7 8.6
2015-Aug-03 01:30N 29°56' W 090°04'3 0.3
2015-Aug-02 13:33N 29°58' W 090°01'3 0.1
2015-Jul-31 21:14N 29°56' W 090°03'0 0.1
2015-Jul-31 16:17N 29°56' W 090°04'5 0.3
2015-Jul-30 21:24N 29°55' W 089°58'5 5.7
2015-Jul-30 20:33N 29°56' W 090°04'0 0.2
2015-Jul-30 19:32N 29°55' W 090°04'0 0.0
2015-Jul-30 18:34N 29°55' W 090°04'0 0.1
2015-Jul-30 17:33N 29°55' W 090°04'  
2015-Jul-28 01:26N 29°51' W 090°04'4 3.2
2015-Jul-28 00:07N 29°55' W 090°05'0 0.3
2015-Jul-27 23:20N 29°55' W 090°05'2 1.7
2015-Jul-27 22:26N 29°56' W 090°04'0 0.3
2015-Jul-27 21:32N 29°55' W 090°04'0 0.0
2015-Jul-27 20:32N 29°55' W 090°04'0 0.1
2015-Jul-27 19:32N 29°55' W 090°04'2 1.6
2015-Jul-27 18:30N 29°54' W 090°05'5 4.5
2015-Jul-27 17:28N 29°50' W 090°04'26 3.7
2015-Jul-27 10:22N 29°33' W 090°28'6 7.2
2015-Jul-27 09:33N 29°34' W 090°35'6 6.1
2015-Jul-27 08:33N 29°37' W 090°41'4 4.1
2015-Jul-27 07:33N 29°34' W 090°45'6 5.6
2015-Jul-27 06:33N 29°32' W 090°51'  

Dump ship's entire track history